• Join FlightAware (Why Join?)
  • Login
  • US Flag 
12:30AM EDT


 

Airport Tracker/Info


-or-


 

Live Flight TrackerFlight Track Log ✈ TAM3763 ✈ 03-Aug-2013 ✈ SBSP / CGH - SBLO / LDB

Flight Track Log - Related Links

Times and Time Zones

All times are in EDT time to prevent confusion due to time zone crossing. See the TAM3763 flight status page for this flight to view local times or setup timezone preferences in your user account.

Time Position Orientation Groundspeed Altitude Reporting Facility
EDT Latitude Longitude Course Direction KTS MPH feet Rate Location/Type
06:02AM -23.5851 -47.4323 273° West  Level Estimated
06:03AM -23.5802 -47.5186 274° West  Level Estimated
06:04AM -23.5753 -47.6049 274° West  Level Estimated
06:05AM -23.5703 -47.6912 274° West  Level Estimated
06:06AM -23.5653 -47.7775 274° West  Level Estimated
06:07AM -23.5603 -47.8638 274° West  Level Estimated
06:08AM -23.5552 -47.9500 274° West  Level Estimated
06:09AM -23.5500 -48.0363 274° West  Level Estimated
06:10AM -23.5448 -48.1225 274° West  Level Estimated
06:11AM -23.5396 -48.2088 274° West  Level Estimated
06:12AM -23.5343 -48.2950 274° West  Level Estimated
06:13AM -23.5290 -48.3812 274° West  Level Estimated
06:14AM -23.5236 -48.4674 274° West  Level Estimated
06:15AM -23.5181 -48.5537 274° West  Level Estimated
06:16AM -23.5127 -48.6399 274° West  Level Estimated
06:17AM -23.5071 -48.7261 274° West  Level Estimated
06:18AM -23.5016 -48.8123 274° West  Level Estimated
06:19AM -23.4959 -48.8985 274° West  Level Estimated
06:20AM -23.4903 -48.9846 274° West  Level Estimated
06:21AM -23.4845 -49.0708 274° West  Level Estimated
06:22AM -23.4788 -49.1570 274° West  Level Estimated
06:23AM -23.4730 -49.2431 274° West  Level Estimated
06:24AM -23.4671 -49.3293 274° West  Level Estimated
06:25AM -23.4612 -49.4154 274° West  Level Estimated
06:26AM -23.4552 -49.5015 274° West  Level Estimated
06:27AM -23.4492 -49.5877 274° West  Level Estimated
06:28AM -23.4432 -49.6738 274° West  Level Estimated
06:29AM -23.4371 -49.7599 274° West  Level Estimated
06:30AM -23.4309 -49.8460 274° West  Level Estimated
06:31AM -23.4247 -49.9321 274° West  Level Estimated
06:32AM -23.4185 -50.0182 274° West  Level Estimated
06:33AM -23.4122 -50.1043 275° West  Level Estimated
06:34AM -23.4059 -50.1903 275° West  Level Estimated
06:35AM -23.3995 -50.2764 275° West  Level Estimated
06:36AM -23.3931 -50.3624 275° West  Level Estimated
06:37AM -23.3866 -50.4485 275° West  Level Estimated
06:38AM -23.3801 -50.5345 275° West  Level Estimated
06:39AM -23.3735 -50.6206 275° West  Level Estimated
06:40AM -23.3669 -50.7066 275° West  Level Estimated
06:41AM -23.3602 -50.7926 275° West  Level Estimated
06:42AM -23.3535 -50.8786 275° West  Level Estimated
06:43AM -23.3468 -50.9646 275° West  Level Estimated
06:44AM -23.3400 -51.0506 275° West  Level Estimated
06:45AM -23.3336 -51.1301 275° West  Level Estimated
06:46AM -23.3336 -51.1301 340° North  Level Estimated
06:47AM -23.3336 -51.1301 200° South  Level Estimated
06:48AM -23.3336 -51.1301 340° North  Level Estimated
06:49AM -23.3336 -51.1301 200° South  Level Estimated
06:50AM -23.3336 -51.1301 340° North  Level Estimated
06:51AM -23.3336 -51.1301 200° South  Level Estimated
06:52AM -23.3336 -51.1301 340° North  Level Estimated